createdAt,value
2018-09-13T00:01:54.960Z,2.20
2018-09-13T00:04:27.967Z,2.73
2018-09-13T00:06:56.712Z,2.40
2018-09-13T00:09:25.483Z,2.30
2018-09-13T00:11:54.041Z,2.67
2018-09-13T00:14:24.493Z,2.77
2018-09-13T00:16:53.341Z,3.00
2018-09-13T00:19:23.116Z,2.50
2018-09-13T00:21:52.581Z,2.60
2018-09-13T00:24:23.664Z,2.77
2018-09-13T00:26:52.383Z,3.60
2018-09-13T00:29:22.343Z,2.90
2018-09-13T00:31:51.127Z,3.23
2018-09-13T00:34:20.044Z,3.40
2018-09-13T00:36:49.010Z,3.07
2018-09-13T00:39:18.010Z,3.03
2018-09-13T00:41:47.086Z,2.67
2018-09-13T00:44:15.610Z,2.80
2018-09-13T00:46:44.118Z,2.90
2018-09-13T00:49:13.876Z,3.27
2018-09-13T00:51:42.565Z,3.00
2018-09-13T00:54:11.468Z,3.17
2018-09-13T00:56:40.237Z,2.87
2018-09-13T00:59:09.126Z,2.70
2018-09-13T01:01:38.861Z,2.97
2018-09-13T01:04:08.981Z,2.90
2018-09-13T01:06:38.206Z,2.77
2018-09-13T01:09:09.700Z,2.67
2018-09-13T01:11:45.275Z,2.27
2018-09-13T01:14:16.222Z,2.43
2018-09-13T01:16:45.829Z,2.37
2018-09-13T01:19:15.526Z,2.60
2018-09-13T01:21:44.787Z,2.50
2018-09-13T01:24:13.854Z,2.27
2018-09-13T01:26:43.009Z,2.53
2018-09-13T01:29:11.770Z,2.50
2018-09-13T01:31:40.424Z,2.93
2018-09-13T01:34:09.173Z,2.60
2018-09-13T01:36:38.348Z,3.17
2018-09-13T01:39:08.177Z,2.43
2018-09-13T01:41:36.865Z,2.83
2018-09-13T01:44:05.622Z,2.70
2018-09-13T01:46:34.420Z,2.67
2018-09-13T01:49:03.256Z,2.53
2018-09-13T01:51:32.032Z,2.90
2018-09-13T01:54:00.996Z,3.10
2018-09-13T01:56:29.843Z,2.70
2018-09-13T01:58:58.648Z,2.67
2018-09-13T02:01:27.265Z,2.70
2018-09-13T02:03:55.900Z,3.13
2018-09-13T02:06:24.608Z,2.60
2018-09-13T02:08:54.070Z,3.33
2018-09-13T02:11:22.950Z,3.10
2018-09-13T02:13:51.600Z,3.07
2018-09-13T02:16:20.528Z,3.23
2018-09-13T02:18:49.318Z,3.00
2018-09-13T02:21:18.041Z,2.80
2018-09-13T02:23:46.656Z,3.20
2018-09-13T02:26:15.278Z,2.77
2018-09-13T02:28:44.375Z,2.83
2018-09-13T02:31:13.836Z,3.10
2018-09-13T02:33:42.620Z,3.70
2018-09-13T02:36:11.208Z,3.50
2018-09-13T02:38:40.467Z,3.30
2018-09-13T02:41:09.813Z,3.33
2018-09-13T02:43:39.012Z,3.50
2018-09-13T02:46:08.311Z,3.10
2018-09-13T02:48:39.838Z,3.07
2018-09-13T02:51:08.649Z,3.03
2018-09-13T02:53:37.514Z,3.13
2018-09-13T02:56:08.105Z,3.10
2018-09-13T02:58:36.863Z,2.63
2018-09-13T03:01:07.033Z,2.83
2018-09-13T03:03:36.310Z,3.80
2018-09-13T03:06:05.073Z,2.90
2018-09-13T03:08:33.892Z,3.03
2018-09-13T03:11:02.655Z,3.03
2018-09-13T03:13:31.326Z,2.77
2018-09-13T03:16:01.080Z,2.97
2018-09-13T03:18:30.801Z,2.93
2018-09-13T03:20:59.988Z,3.50
2018-09-13T03:23:28.914Z,3.17
2018-09-13T03:25:58.191Z,2.90
2018-09-13T03:28:30.080Z,3.47
2018-09-13T03:31:04.393Z,3.40
2018-09-13T03:33:35.874Z,2.90
2018-09-13T03:36:05.482Z,2.90
2018-09-13T03:38:35.619Z,3.30
2018-09-13T03:41:04.880Z,2.70
2018-09-13T03:43:35.060Z,3.67
2018-09-13T03:46:04.423Z,2.73
2018-09-13T03:48:33.898Z,2.60
2018-09-13T03:51:03.791Z,2.87
2018-09-13T03:53:34.053Z,2.87
2018-09-13T03:56:04.036Z,3.17
2018-09-13T03:58:34.673Z,2.60
2018-09-13T04:01:05.089Z,2.57
2018-09-13T04:03:35.517Z,2.90
2018-09-13T04:06:06.238Z,2.40
2018-09-13T04:08:35.475Z,2.40
2018-09-13T04:11:06.874Z,2.93
2018-09-13T04:13:37.215Z,2.80
2018-09-13T04:16:08.230Z,2.67
2018-09-13T04:18:37.593Z,3.37
2018-09-13T04:21:09.009Z,2.90
2018-09-13T04:23:39.640Z,2.80
2018-09-13T04:26:09.796Z,3.17
2018-09-13T04:28:43.310Z,2.87
2018-09-13T04:31:14.364Z,3.43
2018-09-13T04:34:07.637Z,3.33
2018-09-13T04:39:35.995Z,2.77
2018-09-13T04:42:13.365Z,2.80
2018-09-13T04:44:44.470Z,3.10
2018-09-13T04:47:22.056Z,2.30
2018-09-13T04:49:52.268Z,2.77
2018-09-13T04:52:26.484Z,2.90
2018-09-13T04:54:59.881Z,3.57
2018-09-13T04:57:32.300Z,2.97
2018-09-13T05:00:13.571Z,3.17
2018-09-13T05:02:42.597Z,2.70
2018-09-13T05:05:11.611Z,2.63
2018-09-13T05:07:43.614Z,2.60
2018-09-13T05:10:12.743Z,3.43
2018-09-13T05:12:41.692Z,3.10
2018-09-13T05:15:10.596Z,3.30
2018-09-13T05:17:40.551Z,2.70
2018-09-13T05:20:11.424Z,2.90
2018-09-13T05:22:41.837Z,3.37
2018-09-13T05:25:10.295Z,3.03
2018-09-13T05:27:38.930Z,2.90
2018-09-13T05:30:08.222Z,3.60
2018-09-13T05:32:41.709Z,3.33
2018-09-13T05:35:10.594Z,4.27
2018-09-13T05:37:39.327Z,3.00
2018-09-13T05:40:08.192Z,3.53
2018-09-13T05:42:36.876Z,3.20
2018-09-13T05:45:05.657Z,3.70
2018-09-13T05:47:34.336Z,3.20
2018-09-13T05:50:02.855Z,3.27
2018-09-13T05:52:31.513Z,3.80
2018-09-13T05:55:00.182Z,3.30
2018-09-13T05:57:28.787Z,3.50
2018-09-13T05:59:57.371Z,3.90
2018-09-13T06:02:26.712Z,3.77
2018-09-13T06:04:59.000Z,4.07
2018-09-13T06:07:27.624Z,4.50
2018-09-13T06:09:56.089Z,4.30
2018-09-13T06:12:24.619Z,4.23
2018-09-13T06:14:53.051Z,4.30
2018-09-13T06:17:21.466Z,4.30
2018-09-13T06:19:49.977Z,4.30
2018-09-13T06:22:18.645Z,3.87
2018-09-13T06:24:47.233Z,5.07
2018-09-13T06:27:16.661Z,4.10
2018-09-13T06:29:45.104Z,4.17
2018-09-13T06:32:13.712Z,3.90
2018-09-13T06:34:42.247Z,4.23
2018-09-13T06:37:10.665Z,4.30
2018-09-13T06:39:39.320Z,3.60
2018-09-13T06:42:07.742Z,3.97
2018-09-13T06:44:36.303Z,3.87
2018-09-13T06:47:04.895Z,3.27
2018-09-13T06:49:33.749Z,3.60
2018-09-13T06:52:02.267Z,3.87
2018-09-13T06:54:30.894Z,3.50
2018-09-13T06:56:59.333Z,3.53
2018-09-13T06:59:28.060Z,3.00
2018-09-13T07:01:56.506Z,3.20
2018-09-13T07:04:25.073Z,3.23
2018-09-13T07:06:53.583Z,2.53
2018-09-13T07:09:22.041Z,3.47
2018-09-13T07:11:50.730Z,3.20
2018-09-13T07:14:19.279Z,3.00
2018-09-13T07:16:47.855Z,2.57
2018-09-13T07:19:16.359Z,2.27
2018-09-13T07:21:44.967Z,2.30
2018-09-13T07:24:13.463Z,2.17
2018-09-13T07:26:41.788Z,1.90
2018-09-13T07:29:10.262Z,1.93
2018-09-13T07:31:38.651Z,2.10
2018-09-13T07:34:07.595Z,2.33
2018-09-13T07:36:36.029Z,2.63
2018-09-13T07:39:09.679Z,2.27
2018-09-13T07:41:38.096Z,2.40
2018-09-13T07:44:06.569Z,2.63
2018-09-13T07:46:35.317Z,1.90
2018-09-13T07:49:03.932Z,2.00
2018-09-13T07:51:32.412Z,2.17
2018-09-13T07:54:00.956Z,2.60
2018-09-13T07:56:29.470Z,2.40
2018-09-13T07:58:57.909Z,2.50
2018-09-13T08:01:26.374Z,2.97
2018-09-13T08:03:55.050Z,3.20
2018-09-13T08:06:23.776Z,2.83
2018-09-13T08:08:52.975Z,2.67
2018-09-13T08:11:21.838Z,2.80
2018-09-13T08:13:50.536Z,2.83
2018-09-13T08:16:19.815Z,2.33
2018-09-13T08:18:48.261Z,2.10
2018-09-13T08:21:16.956Z,2.40
2018-09-13T08:23:46.098Z,2.30
2018-09-13T08:26:14.821Z,2.10
2018-09-13T08:28:43.336Z,2.10
2018-09-13T08:31:13.516Z,2.40
2018-09-13T08:33:42.037Z,2.37
2018-09-13T08:36:10.563Z,2.03
2018-09-13T08:38:39.060Z,2.03
2018-09-13T08:41:07.533Z,2.10
2018-09-13T08:43:35.947Z,2.57
2018-09-13T08:46:04.418Z,2.80
2018-09-13T08:48:33.269Z,2.00
2018-09-13T08:51:01.737Z,1.90
2018-09-13T08:53:30.162Z,2.23
2018-09-13T08:55:58.591Z,2.00
2018-09-13T08:58:27.034Z,1.87
2018-09-13T09:00:58.099Z,1.97
2018-09-13T09:03:26.594Z,2.07
2018-09-13T09:05:55.175Z,2.10
2018-09-13T09:08:24.731Z,2.17
2018-09-13T09:10:53.155Z,2.20
2018-09-13T09:13:21.654Z,2.20
2018-09-13T09:15:50.212Z,3.10
2018-09-13T09:18:24.994Z,2.10
2018-09-13T09:20:53.308Z,2.20
2018-09-13T09:23:21.715Z,2.13
2018-09-13T09:25:51.100Z,1.87
2018-09-13T09:28:19.537Z,1.87
2018-09-13T09:30:48.005Z,1.90
2018-09-13T09:33:16.552Z,2.07
2018-09-13T09:35:45.086Z,2.07
2018-09-13T09:38:14.304Z,1.80
2018-09-13T09:40:42.874Z,1.70
2018-09-13T09:43:11.439Z,2.10
2018-09-13T09:45:40.247Z,1.80
2018-09-13T09:48:08.902Z,2.37
2018-09-13T09:50:37.459Z,1.80
2018-09-13T09:53:06.725Z,2.37
2018-09-13T09:55:35.346Z,1.80
2018-09-13T09:58:03.903Z,1.97
2018-09-13T10:00:37.630Z,2.43
2018-09-13T10:03:06.226Z,2.33
2018-09-13T10:05:34.679Z,1.93
2018-09-13T10:08:03.136Z,1.70
2018-09-13T10:10:31.718Z,1.80
2018-09-13T10:13:00.513Z,2.07
2018-09-13T10:15:34.423Z,1.90
2018-09-13T10:18:08.318Z,1.60
2018-09-13T10:20:42.583Z,2.07
2018-09-13T10:23:16.400Z,1.97
2018-09-13T10:25:50.008Z,1.70
2018-09-13T10:28:24.287Z,1.40
2018-09-13T10:30:58.196Z,1.80
2018-09-13T10:33:32.352Z,1.90
2018-09-13T10:36:06.358Z,2.53
2018-09-13T10:38:40.073Z,1.57
2018-09-13T10:41:13.942Z,1.77
2018-09-13T10:43:47.741Z,1.70
2018-09-13T10:46:21.651Z,2.00
2018-09-13T10:48:55.404Z,1.90
2018-09-13T10:51:29.330Z,1.97
2018-09-13T10:54:03.930Z,1.63
2018-09-13T10:56:32.350Z,1.60
2018-09-13T10:59:00.942Z,1.80
2018-09-13T11:01:29.417Z,1.83
2018-09-13T11:03:57.848Z,1.80
2018-09-13T11:06:26.355Z,1.83
2018-09-13T11:08:54.789Z,1.80
2018-09-13T11:11:23.304Z,1.90
2018-09-13T11:13:54.155Z,1.87
2018-09-13T11:16:22.668Z,1.90
2018-09-13T11:18:51.115Z,1.77
2018-09-13T11:21:19.627Z,1.70
2018-09-13T11:23:48.038Z,2.07
2018-09-13T11:26:16.458Z,1.60
2018-09-13T11:28:45.011Z,1.40
2018-09-13T11:31:13.503Z,2.00
2018-09-13T11:33:42.036Z,1.80
2018-09-13T11:36:10.519Z,1.37
2018-09-13T11:38:38.901Z,1.43
2018-09-13T11:41:07.432Z,1.70
2018-09-13T11:43:35.761Z,1.77
2018-09-13T11:46:04.261Z,1.57
2018-09-13T11:48:32.764Z,1.60
2018-09-13T11:51:01.139Z,1.67
2018-09-13T11:53:29.580Z,1.60
2018-09-13T11:55:58.026Z,1.87
2018-09-13T11:58:26.411Z,1.60
2018-09-13T12:00:54.858Z,1.57
2018-09-13T12:03:23.248Z,1.97
2018-09-13T12:05:51.740Z,1.50
2018-09-13T12:08:20.130Z,1.67
2018-09-13T12:10:48.838Z,1.60
2018-09-13T12:13:17.301Z,1.60
2018-09-13T12:15:45.679Z,1.80
2018-09-13T12:18:14.185Z,1.97
2018-09-13T12:20:42.687Z,1.53
2018-09-13T12:23:11.229Z,1.50
2018-09-13T12:25:39.668Z,1.13
2018-09-13T12:28:08.061Z,1.73
2018-09-13T12:30:36.486Z,2.03
2018-09-13T12:33:05.035Z,1.60
2018-09-13T12:35:33.582Z,1.60
2018-09-13T12:38:02.009Z,1.50
2018-09-13T12:40:30.494Z,1.60
2018-09-13T12:42:58.936Z,1.60
2018-09-13T12:45:27.394Z,2.00
2018-09-13T12:47:55.861Z,2.00
2018-09-13T12:50:24.380Z,1.70
2018-09-13T12:52:52.836Z,2.00
2018-09-13T12:55:21.392Z,1.80
2018-09-13T12:57:49.876Z,1.40
2018-09-13T13:00:18.341Z,1.60
2018-09-13T13:02:46.797Z,1.50
2018-09-13T13:05:15.302Z,1.50
2018-09-13T13:07:43.775Z,1.70
2018-09-13T13:10:12.133Z,1.70
2018-09-13T13:12:40.506Z,1.77
2018-09-13T13:15:08.863Z,1.67
2018-09-13T13:17:37.280Z,1.70
2018-09-13T13:20:05.795Z,1.83
2018-09-13T13:22:42.381Z,1.70
2018-09-13T13:25:12.796Z,1.87
2018-09-13T13:27:41.125Z,1.97
2018-09-13T13:30:09.515Z,2.00
2018-09-13T13:32:38.127Z,1.90
2018-09-13T13:35:06.572Z,1.93
2018-09-13T13:37:38.668Z,2.17
2018-09-13T13:40:07.088Z,1.70
2018-09-13T13:42:35.585Z,2.50
2018-09-13T13:45:04.209Z,1.60
2018-09-13T13:47:32.619Z,1.70
2018-09-13T13:50:01.043Z,1.60
2018-09-13T13:52:29.394Z,1.80
2018-09-13T13:54:57.786Z,1.80
2018-09-13T13:57:27.259Z,1.90
2018-09-13T13:59:55.718Z,1.43
2018-09-13T14:02:24.062Z,2.03
2018-09-13T14:04:52.471Z,1.73
2018-09-13T14:07:20.906Z,1.97
2018-09-13T14:09:49.299Z,1.93
2018-09-13T14:12:17.740Z,2.00
2018-09-13T14:14:46.178Z,2.13
2018-09-13T14:17:14.668Z,1.80
2018-09-13T14:19:43.195Z,1.77
2018-09-13T14:22:11.616Z,1.87
2018-09-13T14:24:39.973Z,1.63
2018-09-13T14:27:08.376Z,1.70
2018-09-13T14:29:36.741Z,1.73
2018-09-13T14:32:05.734Z,1.90
2018-09-13T14:34:34.314Z,1.87
2018-09-13T14:37:02.653Z,1.97
2018-09-13T14:39:31.104Z,2.03
2018-09-13T14:41:59.470Z,1.97
2018-09-13T14:44:27.965Z,1.60
2018-09-13T14:46:56.415Z,1.80
2018-09-13T14:49:24.830Z,1.83
2018-09-13T14:51:53.311Z,1.80
2018-09-13T14:54:21.777Z,1.60
2018-09-13T14:56:50.131Z,1.60
2018-09-13T14:59:18.762Z,1.70
2018-09-13T15:01:47.282Z,1.47
2018-09-13T15:04:15.725Z,2.43
2018-09-13T15:06:44.100Z,2.10
2018-09-13T15:09:13.545Z,5.90
2018-09-13T15:11:42.298Z,2.00
2018-09-13T15:14:10.703Z,1.63
2018-09-13T15:16:40.016Z,2.53
2018-09-13T15:19:08.468Z,2.00
2018-09-13T15:21:36.840Z,1.57
2018-09-13T15:24:05.229Z,1.67
2018-09-13T15:26:33.662Z,1.90
2018-09-13T15:29:02.112Z,1.57
2018-09-13T15:31:30.533Z,1.70
2018-09-13T15:33:58.891Z,1.80
2018-09-13T15:36:27.511Z,1.73
2018-09-13T15:38:55.943Z,2.53
2018-09-13T15:41:24.324Z,2.20
2018-09-13T15:43:53.319Z,2.20
2018-09-13T15:46:22.086Z,2.03
2018-09-13T15:48:50.512Z,2.20
2018-09-13T15:51:18.966Z,1.90
2018-09-13T15:53:47.339Z,1.90
2018-09-13T15:56:16.402Z,2.20
2018-09-13T15:58:44.837Z,2.27
2018-09-13T16:01:13.310Z,1.87
2018-09-13T16:03:41.779Z,2.20
2018-09-13T16:06:10.116Z,2.50
2018-09-13T16:08:38.484Z,2.20
2018-09-13T16:11:06.858Z,2.30
2018-09-13T16:13:35.260Z,2.13
2018-09-13T16:16:03.584Z,2.53
2018-09-13T16:18:35.533Z,2.70
2018-09-13T16:21:04.054Z,2.43
2018-09-13T16:23:32.387Z,2.30
2018-09-13T16:26:00.910Z,2.40
2018-09-13T16:28:29.363Z,2.63
2018-09-13T16:30:57.804Z,2.47
2018-09-13T16:33:26.216Z,2.00
2018-09-13T16:35:55.778Z,2.30
2018-09-13T16:38:30.617Z,2.20
2018-09-13T16:41:08.112Z,2.00
2018-09-13T16:43:44.403Z,2.27
2018-09-13T16:46:18.471Z,2.10
2018-09-13T16:48:48.820Z,2.40
2018-09-13T16:51:17.610Z,2.23
2018-09-13T16:53:48.143Z,2.20
2018-09-13T16:56:17.085Z,2.17
2018-09-13T16:58:45.849Z,2.30
2018-09-13T17:01:15.267Z,2.30
2018-09-13T17:03:46.013Z,2.33
2018-09-13T17:06:16.065Z,2.03
2018-09-13T17:08:45.499Z,2.23
2018-09-13T17:11:33.286Z,2.27
2018-09-13T17:14:03.319Z,2.10
2018-09-13T17:16:34.781Z,2.07
2018-09-13T17:19:16.159Z,1.60
2018-09-13T17:21:48.249Z,1.90
2018-09-13T17:24:17.415Z,1.90
2018-09-13T17:26:48.794Z,2.20
2018-09-13T17:29:17.167Z,2.00
2018-09-13T17:31:46.681Z,1.90
2018-09-13T17:34:33.182Z,1.90
2018-09-13T17:37:03.014Z,1.57
2018-09-13T17:39:32.406Z,1.70
2018-09-13T17:42:04.146Z,1.77
2018-09-13T17:44:36.088Z,1.70
2018-09-13T17:47:06.596Z,1.90
2018-09-13T17:49:36.553Z,1.77
2018-09-13T17:52:04.917Z,2.00
2018-09-13T17:54:33.265Z,2.23
2018-09-13T17:57:01.992Z,1.60
2018-09-13T17:59:30.492Z,1.63
2018-09-13T18:01:58.909Z,1.70
2018-09-13T18:04:27.340Z,1.60
2018-09-13T18:06:55.713Z,2.10
2018-09-13T18:09:24.142Z,2.07
2018-09-13T18:11:52.601Z,1.97
2018-09-13T18:14:21.058Z,2.40
2018-09-13T18:16:49.540Z,2.00
2018-09-13T18:19:17.964Z,2.20
2018-09-13T18:21:46.319Z,2.23
2018-09-13T18:24:15.776Z,2.17
2018-09-13T18:26:45.573Z,1.97
2018-09-13T18:29:16.886Z,2.10
2018-09-13T18:31:45.377Z,2.00
2018-09-13T18:34:15.040Z,2.00
2018-09-13T18:36:43.492Z,2.03
2018-09-13T18:39:12.356Z,1.93
2018-09-13T18:42:57.893Z,2.30
2018-09-13T18:45:28.440Z,2.03
2018-09-13T18:48:02.659Z,1.80
2018-09-13T18:50:32.583Z,2.13
2018-09-13T18:53:04.618Z,2.13
2018-09-13T18:55:35.840Z,2.10
2018-09-13T18:58:16.157Z,2.07
2018-09-13T19:00:47.523Z,2.53
2018-09-13T19:03:17.751Z,2.20
2018-09-13T19:05:57.971Z,2.30
2018-09-13T19:08:31.169Z,2.80
2018-09-13T19:11:06.278Z,3.30
2018-09-13T19:13:41.348Z,3.77
2018-09-13T19:16:17.593Z,2.93
2018-09-13T19:18:48.318Z,3.13
2018-09-13T19:21:21.571Z,2.90
2018-09-13T19:23:52.955Z,3.17
2018-09-13T19:26:22.641Z,3.03
2018-09-13T19:28:55.444Z,3.67
2018-09-13T19:31:26.368Z,3.40
2018-09-13T19:33:54.818Z,3.50
2018-09-13T20:02:56.099Z,4.40
2018-09-13T20:05:39.739Z,4.03
2018-09-13T20:08:15.726Z,3.80
2018-09-13T20:10:54.517Z,4.10
2018-09-13T20:13:27.572Z,4.53
2018-09-13T20:18:54.029Z,4.47
2018-09-13T20:21:30.393Z,4.53
2018-09-13T20:24:01.994Z,4.37
2018-09-13T20:26:31.487Z,4.27
2018-09-13T21:03:45.699Z,4.60
2018-09-13T21:06:18.750Z,4.83
2018-09-13T21:11:43.846Z,4.40
2018-09-13T21:14:14.281Z,5.00
2018-09-13T21:16:44.090Z,4.43
2018-09-13T21:19:14.668Z,4.80
2018-09-13T21:21:44.427Z,4.73
2018-09-13T21:24:14.088Z,4.57
2018-09-13T21:26:45.984Z,4.70
2018-09-13T21:29:18.550Z,4.17
2018-09-13T21:31:50.525Z,5.57
2018-09-13T21:34:20.006Z,4.53
2018-09-13T21:36:48.936Z,6.70
2018-09-13T21:39:18.551Z,5.37
2018-09-13T21:41:47.141Z,6.23
2018-09-13T21:44:16.504Z,5.17
2018-09-13T21:46:45.025Z,5.07
2018-09-13T21:49:13.697Z,5.70
2018-09-13T21:51:44.903Z,5.77
2018-09-13T21:54:14.451Z,6.07
2018-09-13T21:56:44.833Z,5.57
2018-09-13T22:02:09.735Z,5.03
2018-09-13T22:04:39.200Z,4.57
2018-09-13T22:07:12.038Z,5.00
2018-09-13T22:09:40.864Z,5.50
2018-09-13T22:12:14.898Z,4.93
2018-09-13T22:14:45.618Z,5.63
2018-09-13T22:17:16.158Z,5.00
2018-09-13T22:19:46.201Z,5.20
2018-09-13T22:22:18.781Z,4.90
2018-09-13T22:24:49.934Z,5.67
2018-09-13T22:27:19.271Z,4.73
2018-09-13T22:29:49.291Z,4.60
2018-09-13T22:32:17.988Z,5.47
2018-09-13T22:34:47.769Z,5.87
2018-09-13T22:37:19.365Z,5.73
2018-09-13T22:39:50.246Z,5.20
2018-09-13T22:42:23.034Z,5.50
2018-09-13T22:44:56.698Z,5.77
2018-09-13T22:47:25.813Z,5.60
2018-09-13T22:49:55.056Z,5.30
2018-09-13T22:52:25.396Z,5.37
2018-09-13T22:54:54.549Z,5.57
2018-09-13T22:57:24.058Z,6.27
2018-09-13T22:59:53.764Z,5.20
2018-09-13T23:02:22.874Z,5.20
2018-09-13T23:04:51.961Z,5.80
2018-09-13T23:07:21.231Z,6.27
2018-09-13T23:09:50.063Z,5.67
2018-09-13T23:12:19.127Z,5.23
2018-09-13T23:14:48.987Z,5.40
2018-09-13T23:17:17.831Z,5.30
2018-09-13T23:19:46.420Z,5.97
2018-09-13T23:22:15.236Z,6.10
2018-09-13T23:24:43.793Z,5.47
2018-09-13T23:27:12.459Z,6.60
2018-09-13T23:29:41.089Z,5.50
2018-09-13T23:32:09.717Z,6.30
2018-09-13T23:34:38.415Z,5.37
2018-09-13T23:37:07.336Z,5.43
2018-09-13T23:39:36.600Z,5.33
2018-09-13T23:42:19.256Z,5.00
2018-09-13T23:44:47.829Z,5.90
2018-09-13T23:47:16.431Z,5.60
2018-09-13T23:49:44.966Z,5.37
2018-09-13T23:52:13.765Z,6.67
2018-09-13T23:54:43.357Z,5.73
2018-09-13T23:57:11.904Z,5.13
2018-09-13T23:59:42.558Z,5.63
